Terminal Aerodrome Forecast
Issued by NWS

Home | Current Version | Previous Version | Text Only | Print | Product List | Glossary On
Versions: 1 2 3 4 5 6 7 8 9 10 11 12 13 14 15 16 17 18 19 20 21 22 23 24 25 26 27 28 29 30 31 32 33 34 35 36 37 38 39 40 41 42 43 44 45
000
FTUS45 KBOU 041127
TAFAPA
TAF
KAPA 041127Z 0412/0512 23006KT P6SM FEW120 SCT200
     FM041500 VRB05KT P6SM FEW120 SCT200
     FM041800 36006KT P6SM SCT090 SCT120
     FM042000 02008KT P6SM VCTS SCT090CB BKN140
      TEMPO 0420/0424 VRB20G32KT
     FM050200 14008KT P6SM SCT090 BKN140
     FM050400 19007KT P6SM FEW140 SCT200=

USA.gov is the U.S. government's official web portal to all federal, state and local government web resources and services.